Blairsville, Indiana
Current Conditions -  °F | °C
As of 1:54 PM on Saturday 25 Oct 2014 (Local Time) from KEVV Reporting Station
Clear Clear  
Wind Chill: 25°   Ceiling: Unl
Heat Index: 26°   Visibility: 10mi
Dew Point: 15°   Wind: 8mph
Humidity: 54%   Direction: 290°WNW
Pressure: 29.98"   Gusts: NA
Location:  38.0787°N, 87.7717°W
Report Text: KEVV 251854Z 29007KT 10SM CLR 25/15 A2998 RMK AO2 SLP151 T02500150
Loading
Personal Weather Stations






























Interactive Weather Map
Tropical Storm Tracking
New forecast layout! Learn more

10-Day Weather Forecast

Advertisements
Track Severe Weather on mobile